X  Tanca Dades meteorològiques de l'aviació METAR     KBNA Nashville International Airport
Temperatura
88°F Temperatura
72°F Rosada
59% Humitat



Vent
0 MPH
0 KM/H
0 M/S
0 NUS



Tranquil
Nord
Condicions actuals

Parcialment ennuvolat Parcialment ennuvolat
Pressió 1016.26 (hPa) - 30.01 (inHg)
Visibilitat 10 (milla) - 16.1 (km)
Aeroport
Codi aeroport KBNA

Ubicació: Nashville International Airport
Distància: 28 (mi)

Metar:
KBNA 161453Z 00000KT 10SM FEW042TCU SCT055 BKN250 31/22 A3001 RMK AO2 SLP152 TCU NW-N T03060217 50003

Temps: 07-16-2024 2:53 pm CDT